Time;durP1;ratioP1;P1;durP2;ratioP2;P2;SDS_P1;SDS_P2;PMS_P1;PMS_P2;Temp;Humidity;BMP_temperature;BMP_pressure;BME280_temperature;BME280_humidity;BME280_pressure;Samples;Min_cycle;Max_cycle;Signal;HPM_P1;HPM_P2
2021/07/14 00:00:07;;;;;;;15.60;11.73;;;;;;;20.55;92.52;100062.75;124902;1092;64669;-79
2021/07/14 00:02:34;;;;;;;16.23;12.37;;;;;;;20.55;92.62;100068.14;124941;1093;64304;-80
2021/07/14 00:05:08;;;;;;;13.53;12.13;;;;;;;20.53;92.52;100072.97;124958;1093;64442;-75
2021/07/14 00:07:37;;;;;;;16.18;12.10;;;;;;;20.53;92.71;100064.88;125071;1093;64381;-75
2021/07/14 00:10:17;;;;;;;18.10;11.93;;;;;;;20.53;92.77;100064.88;124873;1092;64209;-75
2021/07/14 00:13:08;;;;;;;14.60;12.17;;;;;;;20.50;93.04;100057.30;125326;1092;64261;-77
2021/07/14 00:24:08;;;;;;;13.87;10.80;;;;;;;20.47;94.64;100049.73;124782;1093;64307;-75
2021/07/14 00:26:35;;;;;;;16.77;13.10;;;;;;;20.42;94.23;100052.37;125062;1093;64354;-76
2021/07/14 00:29:05;;;;;;;14.80;11.20;;;;;;;20.38;94.33;100057.48;125075;1093;64275;-75
2021/07/14 00:31:32;;;;;;;16.00;12.50;;;;;;;20.36;95.17;100065.80;124945;1093;64446;-77
2021/07/14 00:33:59;;;;;;;18.30;11.03;;;;;;;20.33;95.71;100065.49;124787;1093;64754;-78
2021/07/14 00:36:26;;;;;;;14.23;11.73;;;;;;;20.32;94.74;100067.38;124803;1093;64319;-76
2021/07/14 00:39:03;;;;;;;11.50;9.60;;;;;;;20.32;95.15;100070.08;125382;1093;64203;-75
2021/07/14 00:41:30;;;;;;;14.77;11.67;;;;;;;20.30;95.81;100061.44;125185;1093;64173;-78
2021/07/14 00:44:03;;;;;;;13.80;11.77;;;;;;;20.29;95.31;100059.80;124923;1092;64336;-75
2021/07/14 00:46:30;;;;;;;19.40;13.00;;;;;;;20.29;95.23;100059.80;124948;1092;64192;-78
2021/07/14 00:49:01;;;;;;;14.53;12.47;;;;;;;20.29;95.22;100062.48;124880;1091;64349;-76
2021/07/14 00:51:30;;;;;;;13.97;9.67;;;;;;;20.30;96.81;100063.33;125335;1092;64261;-77
2021/07/14 00:53:58;;;;;;;16.10;11.43;;;;;;;20.29;96.05;100070.56;125051;1093;64304;-78
2021/07/14 00:56:28;;;;;;;10.93;9.70;;;;;;;20.29;96.71;100065.17;124912;1092;64915;-76
2021/07/14 00:58:57;;;;;;;16.40;12.73;;;;;;;20.30;96.38;100077.59;124783;1092;64837;-78
2021/07/14 01:01:25;;;;;;;17.33;10.87;;;;;;;20.31;96.77;100065.73;125031;1093;64308;-76
2021/07/14 01:03:59;;;;;;;14.80;12.27;;;;;;;20.30;97.01;100061.44;125096;1093;64380;-76
2021/07/14 01:06:46;;;;;;;15.85;12.40;;;;;;;20.32;96.82;100061.19;124964;1092;64208;-77
2021/07/14 01:09:17;;;;;;;16.23;12.90;;;;;;;20.33;97.11;100068.19;125091;1093;64415;-78
2021/07/14 01:11:48;;;;;;;14.30;11.40;;;;;;;20.33;96.97;100054.72;124899;1093;65064;-77
2021/07/14 01:14:23;;;;;;;16.85;12.20;;;;;;;20.32;97.77;100053.91;126017;1093;64211;-75
2021/07/14 01:17:01;;;;;;;15.80;13.53;;;;;;;20.31;97.43;100054.97;124910;1092;64256;-77
2021/07/14 01:20:01;;;;;;;14.53;12.77;;;;;;;20.30;96.99;100050.66;124921;1093;64255;-76
2021/07/14 01:23:09;;;;;;;14.57;12.63;;;;;;;20.30;98.00;100049.85;125046;1093;64262;-78
2021/07/14 01:25:48;;;;;;;16.30;12.83;;;;;;;20.28;97.66;100047.41;124939;1092;64310;-78
2021/07/14 01:28:16;;;;;;;14.43;11.93;;;;;;;20.28;98.70;100047.41;124899;1093;64233;-76
2021/07/14 01:30:44;;;;;;;19.63;14.10;;;;;;;20.29;98.77;100042.83;124987;1093;64213;-75
2021/07/14 01:33:12;;;;;;;16.45;12.80;;;;;;;20.30;98.31;100047.16;125056;1093;64389;-73
2021/07/14 01:35:44;;;;;;;15.57;13.10;;;;;;;20.29;98.57;100040.94;124886;1093;64283;-78
2021/07/14 01:38:12;;;;;;;17.67;13.67;;;;;;;20.27;98.51;100034.99;124954;1093;64221;-76
2021/07/14 01:40:41;;;;;;;20.87;14.23;;;;;;;20.27;98.31;100043.07;124705;1093;64335;-75
2021/07/14 01:43:09;;;;;;;15.33;13.73;;;;;;;20.27;98.54;100034.99;124931;1093;64281;-76
2021/07/14 01:45:37;;;;;;;12.43;9.27;;;;;;;20.28;99.71;100035.83;125074;1092;64262;-75
2021/07/14 01:48:09;;;;;;;13.47;11.53;;;;;;;20.25;98.15;100029.08;124960;1093;64980;-77
2021/07/14 01:50:37;;;;;;;14.80;11.43;;;;;;;20.21;99.59;100019.88;125070;1092;64297;-80
2021/07/14 01:53:07;;;;;;;14.20;11.87;;;;;;;20.21;99.62;100014.50;125000;1093;64327;-81
2021/07/14 01:55:39;;;;;;;22.47;15.13;;;;;;;20.20;100.00;100015.55;124862;1093;64339;-75
2021/07/14 01:58:07;;;;;;;18.50;13.20;;;;;;;20.16;99.66;100003.66;125334;1093;64304;-78
2021/07/14 02:00:35;;;;;;;18.47;14.87;;;;;;;20.15;100.00;100010.94;125373;1093;64339;-74
2021/07/14 02:03:08;;;;;;;20.00;15.05;;;;;;;20.16;99.26;100011.73;124811;1093;64205;-77
2021/07/14 02:05:38;;;;;;;17.73;15.00;;;;;;;20.14;99.38;100009.30;125162;1093;64976;-77
2021/07/14 02:08:05;;;;;;;17.47;14.10;;;;;;;20.14;100.00;100005.80;124788;1092;64301;-75
2021/07/14 02:10:33;;;;;;;17.57;13.37;;;;;;;20.12;100.00;100007.92;125002;1093;64304;-76
2021/07/14 02:13:01;;;;;;;16.90;13.07;;;;;;;20.08;100.00;99998.73;125122;1093;64176;-80
2021/07/14 02:15:31;;;;;;;18.80;13.57;;;;;;;20.05;100.00;99993.88;124914;1092;64259;-77
2021/07/14 02:18:06;;;;;;;18.43;14.50;;;;;;;20.04;100.00;99994.92;125324;1093;64385;-79
2021/07/14 02:20:33;;;;;;;17.30;12.10;;;;;;;20.02;100.00;99994.36;124945;1093;64552;-76
2021/07/14 02:23:04;;;;;;;18.53;14.37;;;;;;;19.99;100.00;99984.11;124887;1093;64660;-77
2021/07/14 02:25:32;;;;;;;18.23;13.60;;;;;;;19.96;100.00;99983.55;125155;1093;64205;-76
2021/07/14 02:28:00;;;;;;;18.90;13.37;;;;;;;19.94;100.00;99979.50;124993;1093;64317;-78
2021/07/14 02:30:27;;;;;;;14.60;12.40;;;;;;;19.91;100.00;99985.38;124933;1093;64317;-79
2021/07/14 02:33:05;;;;;;;18.23;13.77;;;;;;;19.90;100.00;99987.27;124840;1092;64230;-78
2021/07/14 02:35:36;;;;;;;19.03;14.03;;;;;;;19.86;100.00;99986.14;124990;1093;64336;-76
2021/07/14 02:38:43;;;;;;;15.03;11.13;;;;;;;19.86;100.00;99985.34;124970;1093;64428;-77
2021/07/14 02:41:19;;;;;;;17.77;13.63;;;;;;;19.82;100.00;99982.33;124790;1093;64285;-78
2021/07/14 02:43:49;;;;;;;17.47;12.17;;;;;;;19.81;100.00;99982.61;125032;1093;64671;-76
2021/07/14 02:46:26;;;;;;;18.00;12.63;;;;;;;19.78;100.00;99983.91;124774;1092;64298;-77
2021/07/14 02:48:57;;;;;;;17.33;11.67;;;;;;;19.78;100.00;99975.83;125107;1092;64304;-76
2021/07/14 02:51:29;;;;;;;16.57;10.63;;;;;;;19.76;100.00;99986.03;125046;1092;64226;-77
2021/07/14 02:54:00;;;;;;;21.00;14.60;;;;;;;19.74;100.00;99988.16;125354;1093;64326;-77
2021/07/14 02:56:30;;;;;;;20.47;15.77;;;;;;;19.75;100.00;99995.19;125218;1092;64282;-76
2021/07/14 02:59:05;;;;;;;26.10;15.87;;;;;;;19.76;100.00;100002.17;125307;1092;64310;-76
2021/07/14 03:01:39;;;;;;;19.03;16.57;;;;;;;19.78;100.00;99997.36;124876;1093;64885;-77
2021/07/14 03:04:08;;;;;;;21.85;14.70;;;;;;;19.80;100.00;100007.88;125033;1093;64508;-79
2021/07/14 03:06:38;;;;;;;19.97;15.43;;;;;;;19.79;100.00;100007.07;125535;1092;64173;-75
2021/07/14 03:09:07;;;;;;;19.67;12.63;;;;;;;19.80;100.00;100007.88;124951;1092;64332;-76
2021/07/14 03:11:39;;;;;;;18.90;13.47;;;;;;;19.79;100.00;100007.07;125061;1093;64418;-78
2021/07/14 03:14:11;;;;;;;16.30;12.10;;;;;;;19.79;100.00;100011.65;124995;1093;64300;-76
2021/07/14 03:16:40;;;;;;;18.53;14.07;;;;;;;19.78;100.00;100016.20;125527;1093;64265;-77
2021/07/14 03:19:10;;;;;;;17.35;12.55;;;;;;;19.75;100.00;100011.33;124904;1092;64310;-76
2021/07/14 03:21:39;;;;;;;17.93;14.80;;;;;;;19.73;100.00;100008.08;125425;1093;64310;-78
2021/07/14 03:24:08;;;;;;;18.67;14.33;;;;;;;19.72;100.00;100017.20;124997;1093;64288;-76
2021/07/14 03:26:37;;;;;;;20.07;15.40;;;;;;;19.72;100.00;100015.34;125892;1093;64297;-76
2021/07/14 03:29:05;;;;;;;15.25;10.00;;;;;;;19.70;100.00;100013.95;125001;1093;64351;-79
2021/07/14 03:31:32;;;;;;;19.07;13.63;;;;;;;19.68;100.00;100016.08;124809;1092;64230;-75
2021/07/14 03:34:01;;;;;;;22.17;14.73;;;;;;;19.69;100.00;100017.69;124996;1093;64304;-78
2021/07/14 03:36:29;;;;;;;17.07;12.07;;;;;;;19.68;100.00;100024.15;124878;1093;64297;-78
2021/07/14 03:38:58;;;;;;;23.67;13.60;;;;;;;19.67;100.00;100019.81;124978;1093;64358;-78
2021/07/14 03:41:26;;;;;;;19.05;13.40;;;;;;;19.67;100.00;100023.31;124998;1093;64243;-78
2021/07/14 03:43:56;;;;;;;18.20;14.40;;;;;;;19.66;100.00;100023.58;124864;1093;64261;-76
2021/07/14 03:46:25;;;;;;;25.40;16.00;;;;;;;19.66;100.00;100028.97;125034;1093;64234;-76
2021/07/14 03:48:53;;;;;;;21.43;13.70;;;;;;;19.67;100.00;100030.58;125112;1093;64207;-76
2021/07/14 03:51:23;;;;;;;26.13;16.20;;;;;;;19.68;100.00;100032.22;124897;1093;64284;-75
2021/07/14 03:53:52;;;;;;;25.07;16.43;;;;;;;19.70;100.00;100035.47;124823;1093;64403;-74
2021/07/14 03:56:26;;;;;;;19.53;11.73;;;;;;;19.72;100.00;100041.42;125184;1093;64265;-77
2021/07/14 03:59:01;;;;;;;18.30;15.00;;;;;;;19.71;100.00;100037.12;125054;1092;64326;-74
2021/07/14 04:01:28;;;;;;;25.17;17.33;;;;;;;19.73;100.00;100034.98;124977;1092;64178;-78
2021/07/14 04:03:55;;;;;;;24.73;16.73;;;;;;;19.75;100.00;100038.24;124894;1093;64284;-74
2021/07/14 04:06:27;;;;;;;22.17;16.03;;;;;;;19.75;100.00;100040.94;124957;1093;64211;-77
2021/07/14 04:09:16;;;;;;;21.67;15.90;;;;;;;19.76;100.00;100039.86;124949;1091;64403;-75
2021/07/14 04:12:01;;;;;;;19.13;11.47;;;;;;;19.74;100.00;100032.05;124959;1093;64276;-76
2021/07/14 04:14:30;;;;;;;25.00;16.17;;;;;;;19.74;100.00;100034.75;124787;1093;64332;-77
2021/07/14 04:16:58;;;;;;;23.27;15.50;;;;;;;19.76;100.00;100031.78;125173;1093;64236;-75
2021/07/14 04:19:26;;;;;;;21.53;14.40;;;;;;;19.76;100.00;100034.47;125054;1093;64377;-77
2021/07/14 04:21:53;;;;;;;22.90;14.73;;;;;;;19.76;100.00;100031.78;125101;1092;64304;-78
2021/07/14 04:24:20;;;;;;;24.17;14.70;;;;;;;19.75;100.00;100030.97;125202;1093;64984;-76
2021/07/14 04:26:48;;;;;;;20.97;14.60;;;;;;;19.75;100.00;100030.17;125148;1093;64214;-77
2021/07/14 04:29:17;;;;;;;22.77;15.77;;;;;;;19.77;100.00;100029.92;124773;1092;65497;-78
2021/07/14 04:31:44;;;;;;;14.70;11.77;;;;;;;19.77;100.00;100029.92;124884;1093;63703;-78
2021/07/14 04:34:11;;;;;;;19.55;15.20;;;;;;;19.78;100.00;100020.77;125192;1093;64713;-76
2021/07/14 04:36:41;;;;;;;19.73;13.77;;;;;;;19.79;100.00;100019.72;125003;1093;64287;-77
2021/07/14 04:39:09;;;;;;;21.13;16.23;;;;;;;19.77;100.00;100017.27;124852;1093;64287;-77
2021/07/14 04:41:37;;;;;;;18.53;13.73;;;;;;;19.78;100.00;100018.89;125054;1092;64783;-78
2021/07/14 04:44:07;;;;;;;18.10;13.17;;;;;;;19.80;100.00;100024.02;125026;1092;64350;-78
2021/07/14 04:46:34;;;;;;;21.13;15.00;;;;;;;19.82;100.00;100021.89;125010;1093;64192;-76
2021/07/14 04:49:07;;;;;;;24.80;16.53;;;;;;;19.85;100.00;100024.06;124919;1093;65401;-77
2021/07/14 04:51:35;;;;;;;21.63;14.97;;;;;;;19.91;100.00;100026.59;125322;1093;64499;-75
2021/07/14 04:54:02;;;;;;;20.47;13.73;;;;;;;19.98;100.00;100021.00;125033;1093;64355;-78
2021/07/14 04:56:29;;;;;;;26.50;15.83;;;;;;;20.04;100.00;100024.53;125137;1092;64317;-77
2021/07/14 04:58:56;;;;;;;23.47;14.23;;;;;;;20.09;100.00;100017.33;125316;1092;64611;-77
2021/07/14 05:01:32;;;;;;;22.57;15.43;;;;;;;20.13;100.00;100007.68;124753;1093;64307;-76
2021/07/14 05:04:07;;;;;;;30.43;17.17;;;;;;;20.18;100.00;100014.98;124905;1093;64259;-77
2021/07/14 05:06:34;;;;;;;31.17;16.60;;;;;;;20.22;99.89;100010.72;124858;1092;65050;-78
2021/07/14 05:09:02;;;;;;;24.10;15.40;;;;;;;20.28;100.00;100009.70;124919;1093;64304;-80
2021/07/14 05:11:29;;;;;;;18.03;14.80;;;;;;;20.33;99.90;100001.66;125065;1092;64293;-75
2021/07/14 05:13:57;;;;;;;18.60;13.23;;;;;;;20.36;99.26;100005.73;125152;1092;64289;-77
2021/07/14 05:16:24;;;;;;;20.70;16.77;;;;;;;20.40;98.71;100008.70;124919;1093;64307;-76
2021/07/14 05:18:51;;;;;;;18.15;12.55;;;;;;;20.41;98.77;100003.07;124912;1093;64319;-76
2021/07/14 05:21:18;;;;;;;20.13;14.10;;;;;;;20.43;98.93;100000.94;125000;1093;64216;-77
2021/07/14 05:23:46;;;;;;;13.70;10.50;;;;;;;20.47;98.81;100006.63;124912;1093;64275;-77
2021/07/14 05:26:16;;;;;;;19.70;14.90;;;;;;;20.54;98.26;100001.83;124919;1093;64301;-78
2021/07/14 05:28:45;;;;;;;19.87;13.30;;;;;;;20.56;98.12;99999.69;125181;1092;64304;-75
2021/07/14 05:31:13;;;;;;;19.53;13.93;;;;;;;20.61;98.25;99999.74;125160;1092;65395;-76
2021/07/14 05:33:40;;;;;;;18.03;12.13;;;;;;;20.63;97.67;100007.58;125294;1093;64204;-76
2021/07/14 05:36:08;;;;;;;24.50;16.00;;;;;;;20.65;97.37;100018.91;124882;1093;64842;-76
2021/07/14 05:38:38;;;;;;;24.97;18.23;;;;;;;20.66;96.88;100024.05;125129;1093;64330;-76
2021/07/14 05:41:08;;;;;;;21.77;14.77;;;;;;;20.68;97.48;100035.39;124954;1093;64323;-76
2021/07/14 05:43:42;;;;;;;21.28;14.68;;;;;;;20.70;97.36;100038.64;124831;1093;64298;-77
2021/07/14 05:46:14;;;;;;;24.17;16.97;;;;;;;20.70;96.80;100044.03;124743;1091;125031;-74
2021/07/14 05:48:41;;;;;;;30.13;17.37;;;;;;;20.72;97.05;100041.89;124647;1091;64284;-75
2021/07/14 05:51:09;;;;;;;22.17;15.27;;;;;;;20.73;96.77;100046.19;124624;1093;64342;-76
2021/07/14 05:53:36;;;;;;;16.93;11.27;;;;;;;20.73;96.39;100048.89;124631;1093;65491;-78
2021/07/14 05:56:03;;;;;;;20.97;14.77;;;;;;;20.74;96.16;100042.44;124800;1093;64307;-76
2021/07/14 05:58:30;;;;;;;25.53;14.37;;;;;;;20.72;96.07;100041.89;124706;1093;64307;-75
2021/07/14 06:00:57;;;;;;;25.05;14.90;;;;;;;20.69;96.30;100037.00;124690;1093;64295;-75
2021/07/14 06:03:24;;;;;;;21.33;13.50;;;;;;;20.71;96.40;100029.47;124683;1092;64307;-76
2021/07/14 06:05:52;;;;;;;21.60;13.07;;;;;;;20.68;95.90;100032.69;124700;1092;64378;-78
2021/07/14 06:08:19;;;;;;;18.27;12.53;;;;;;;20.63;96.23;100024.55;124875;1093;64304;-76
2021/07/14 06:10:46;;;;;;;19.35;14.05;;;;;;;20.60;96.63;100027.78;124700;1093;64294;-74
2021/07/14 06:13:13;;;;;;;15.23;12.47;;;;;;;20.56;96.77;100022.05;124638;1093;64291;-74
2021/07/14 06:15:40;;;;;;;21.77;15.80;;;;;;;20.54;96.48;100023.38;124691;1093;64313;-74
2021/07/14 06:18:07;;;;;;;22.93;14.97;;;;;;;20.50;96.61;100011.49;124679;1093;64218;-74
2021/07/14 06:20:34;;;;;;;20.43;13.23;;;;;;;20.51;96.72;100021.22;124643;1093;64243;-75
2021/07/14 06:23:01;;;;;;;22.63;16.50;;;;;;;20.58;96.92;100029.91;124629;1093;64413;-75
2021/07/14 06:25:29;;;;;;;19.53;13.87;;;;;;;20.65;97.07;100040.47;124656;1097;64369;-75
2021/07/14 06:27:57;;;;;;;18.53;13.00;;;;;;;20.66;96.54;100047.50;124608;1096;64342;-75
2021/07/14 06:30:24;;;;;;;19.37;14.17;;;;;;;20.72;96.94;100051.83;124729;1097;64259;-75
2021/07/14 06:32:52;;;;;;;21.47;15.53;;;;;;;20.77;96.78;100047.30;124688;1093;64351;-77
2021/07/14 06:35:21;;;;;;;16.07;11.80;;;;;;;20.82;95.89;100051.11;124713;1092;64878;-76
2021/07/14 06:37:49;;;;;;;30.70;21.97;;;;;;;20.85;96.12;100056.81;124786;1093;64283;-74
2021/07/14 06:40:16;;;;;;;20.05;14.00;;;;;;;20.88;95.67;100055.47;124819;1093;64314;-74
2021/07/14 06:42:43;;;;;;;23.15;15.45;;;;;;;20.85;95.13;100053.31;124673;1093;64316;-74
2021/07/14 06:45:12;;;;;;;18.37;13.00;;;;;;;20.79;94.98;100054.34;124665;1093;64299;-74
2021/07/14 06:47:41;;;;;;;21.03;14.07;;;;;;;20.74;94.76;100050.53;124808;1093;64291;-78
2021/07/14 06:50:10;;;;;;;19.57;14.20;;;;;;;20.69;95.21;100047.78;124760;1093;64313;-75
2021/07/14 06:52:42;;;;;;;16.63;12.60;;;;;;;20.65;95.10;100040.47;124821;1092;64288;-75
2021/07/14 06:55:11;;;;;;;17.23;11.70;;;;;;;20.58;96.02;100034.50;124671;1093;64290;-74
2021/07/14 06:57:44;;;;;;;15.90;12.15;;;;;;;20.53;96.77;100029.86;124730;1092;64291;-75
2021/07/14 07:00:13;;;;;;;16.50;11.90;;;;;;;20.50;96.85;100027.66;124747;1093;64316;-75
2021/07/14 07:02:40;;;;;;;14.20;11.27;;;;;;;20.46;97.16;100018.46;124837;1093;64291;-75
2021/07/14 07:05:08;;;;;;;18.27;12.70;;;;;;;20.46;97.01;100021.16;124606;1093;65417;-77
2021/07/14 07:07:35;;;;;;;14.90;10.07;;;;;;;20.48;96.95;100008.23;124733;1093;64294;-75
2021/07/14 07:10:04;;;;;;;19.77;13.83;;;;;;;20.49;96.78;100002.60;124899;1093;64388;-75
2021/07/14 07:12:32;;;;;;;15.93;10.97;;;;;;;20.54;97.26;100004.52;124715;1094;64439;-75
2021/07/14 07:15:00;;;;;;;16.90;10.63;;;;;;;20.52;97.40;100006.66;124870;1093;64331;-75
2021/07/14 07:17:27;;;;;;;16.80;12.70;;;;;;;20.48;97.97;100008.23;124717;1093;64358;-75
2021/07/14 07:19:54;;;;;;;16.53;12.17;;;;;;;20.46;98.22;100007.69;124734;1093;64243;-75
2021/07/14 07:22:21;;;;;;;11.83;9.63;;;;;;;20.51;98.39;100005.85;124566;1093;64291;-75
2021/07/14 07:24:48;;;;;;;20.17;14.83;;;;;;;20.56;96.98;100005.08;124687;1093;64399;-75
2021/07/14 07:27:15;;;;;;;17.60;14.20;;;;;;;20.63;96.52;100010.27;124605;1092;64295;-77
2021/07/14 07:29:44;;;;;;;17.43;13.43;;;;;;;20.72;96.37;100004.16;124729;1093;64391;-76
2021/07/14 07:32:11;;;;;;;17.30;12.00;;;;;;;20.85;96.91;100007.48;124686;1093;64297;-76
2021/07/14 07:34:38;;;;;;;21.20;14.20;;;;;;;20.94;97.04;99997.81;124713;1093;64306;-74
2021/07/14 07:37:08;;;;;;;17.67;12.57;;;;;;;21.00;95.69;99994.08;124614;1092;64448;-75
2021/07/14 07:39:35;;;;;;;16.77;12.60;;;;;;;21.03;95.34;99998.94;124654;1093;64307;-75
2021/07/14 07:42:03;;;;;;;15.53;11.33;;;;;;;21.05;95.24;100004.89;124739;1093;64685;-77
2021/07/14 07:44:31;;;;;;;12.57;9.83;;;;;;;21.00;94.53;99999.48;124693;1093;64392;-74
2021/07/14 07:46:58;;;;;;;14.70;11.80;;;;;;;21.01;94.71;100005.67;124697;1093;64268;-75
2021/07/14 07:49:26;;;;;;;16.17;12.80;;;;;;;21.02;94.84;100007.28;124659;1093;64520;-75
2021/07/14 07:51:53;;;;;;;17.83;12.63;;;;;;;21.01;94.60;100001.08;124665;1093;64874;-76
2021/07/14 07:54:20;;;;;;;17.17;12.43;;;;;;;21.03;94.19;99993.55;124700;1093;65500;-76
2021/07/14 07:56:47;;;;;;;8.57;5.93;;;;;;;21.04;94.25;99995.19;124660;1093;64294;-76
2021/07/14 07:59:15;;;;;;;15.87;10.60;;;;;;;21.05;94.36;99991.40;124719;1093;65463;-73
2021/07/14 08:01:42;;;;;;;17.40;14.47;;;;;;;21.11;94.67;99989.55;124646;1093;65470;-75
2021/07/14 08:04:09;;;;;;;16.77;13.23;;;;;;;21.21;94.33;99984.22;124766;1093;64329;-75
2021/07/14 08:06:36;;;;;;;18.17;11.47;;;;;;;21.28;93.05;99992.87;124744;1093;64304;-74
2021/07/14 08:09:05;;;;;;;12.75;9.90;;;;;;;21.36;92.97;100005.05;124682;1093;64317;-76
2021/07/14 08:11:33;;;;;;;14.30;10.67;;;;;;;21.40;92.54;100019.64;124864;1093;64259;-74
2021/07/14 08:14:00;;;;;;;15.57;10.37;;;;;;;21.47;92.79;100019.42;124772;1093;64480;-74
2021/07/14 08:16:29;;;;;;;13.50;10.30;;;;;;;21.57;92.35;100020.27;124734;1093;64294;-76
2021/07/14 08:18:56;;;;;;;19.60;11.03;;;;;;;21.62;91.02;100021.38;124721;1093;64313;-76
2021/07/14 08:21:24;;;;;;;15.95;11.60;;;;;;;21.61;90.82;100035.92;124825;1093;64323;-76
2021/07/14 08:23:51;;;;;;;13.00;11.20;;;;;;;21.58;90.26;100038.08;124748;1092;64313;-75
2021/07/14 08:26:18;;;;;;;13.60;9.37;;;;;;;21.57;90.13;100024.87;124774;1093;64448;-75
2021/07/14 08:28:45;;;;;;;12.50;8.50;;;;;;;21.54;89.95;100028.08;124886;1093;64304;-76
2021/07/14 08:31:13;;;;;;;13.20;7.37;;;;;;;21.54;89.49;100014.59;124682;1093;64355;-75
2021/07/14 08:33:40;;;;;;;14.60;9.23;;;;;;;21.54;89.06;100030.78;124751;1093;64310;-74
2021/07/14 08:36:07;;;;;;;9.90;8.17;;;;;;;21.58;88.96;100021.88;124650;1093;65404;-75
2021/07/14 08:38:34;;;;;;;9.80;7.70;;;;;;;21.66;89.16;100019.77;124672;1093;64393;-75
2021/07/14 08:41:04;;;;;;;11.15;7.65;;;;;;;21.81;89.31;100019.80;124704;1093;64314;-77
2021/07/14 08:43:34;;;;;;;12.90;9.20;;;;;;;22.00;88.97;100022.82;124696;1093;64387;-75
2021/07/14 08:46:02;;;;;;;15.07;8.50;;;;;;;22.19;88.56;100015.02;124583;1093;64237;-75
2021/07/14 08:48:29;;;;;;;16.37;8.43;;;;;;;22.37;87.79;100017.20;124617;1092;64310;-74
2021/07/14 08:50:59;;;;;;;13.80;8.53;;;;;;;22.53;87.85;100014.52;124556;1093;64400;-74
2021/07/14 08:53:28;;;;;;;15.73;8.77;;;;;;;22.69;87.05;100016.11;124724;1093;65794;-75
2021/07/14 08:55:57;;;;;;;14.03;7.87;;;;;;;22.84;85.54;100015.28;124949;1092;64311;-76
2021/07/14 08:58:25;;;;;;;11.30;6.00;;;;;;;22.93;82.62;100008.25;124825;1093;65045;-75
2021/07/14 09:00:55;;;;;;;9.90;6.95;;;;;;;22.95;81.86;99999.84;124672;1093;64875;-76
2021/07/14 09:03:25;;;;;;;11.07;6.90;;;;;;;23.01;82.99;99996.07;124632;1093;65036;-75
2021/07/14 09:05:52;;;;;;;10.80;7.10;;;;;;;23.13;83.09;99999.28;124721;1093;65496;-74
2021/07/14 09:08:19;;;;;;;13.85;7.10;;;;;;;23.25;82.27;99998.99;124706;1093;64307;-74
2021/07/14 09:10:46;;;;;;;8.50;5.40;;;;;;;23.37;81.16;100001.36;124681;1093;64240;-75
2021/07/14 09:13:15;;;;;;;8.33;5.00;;;;;;;23.50;80.64;100005.37;124702;1093;64342;-74
2021/07/14 09:15:49;;;;;;;9.13;3.97;;;;;;;23.62;80.26;100013.98;124709;1093;64607;-74
2021/07/14 09:18:20;;;;;;;5.57;3.43;;;;;;;23.64;79.58;100021.83;124645;1092;64275;-75
2021/07/14 09:20:48;;;;;;;6.53;4.60;;;;;;;23.56;79.96;100026.72;124654;1093;64214;-76
2021/07/14 09:23:18;;;;;;;6.37;4.07;;;;;;;23.43;78.63;100021.91;124765;1093;64786;-77
2021/07/14 09:26:00;;;;;;;6.30;4.37;;;;;;;23.27;79.58;100023.88;124748;1093;64307;-74
2021/07/14 09:28:38;;;;;;;5.80;3.40;;;;;;;23.15;79.54;100021.47;124656;1093;64264;-74
2021/07/14 09:31:08;;;;;;;8.90;3.97;;;;;;;23.04;80.31;100025.30;124633;1093;64329;-75
2021/07/14 09:33:40;;;;;;;5.73;3.13;;;;;;;22.93;79.95;100018.23;124773;1093;64319;-78
2021/07/14 09:36:07;;;;;;;5.37;3.60;;;;;;;22.86;80.99;100023.13;124762;1093;64333;-76
2021/07/14 09:38:38;;;;;;;5.87;3.83;;;;;;;22.82;81.05;100022.05;124767;1093;64260;-76
2021/07/14 09:41:11;;;;;;;7.33;3.40;;;;;;;22.71;81.67;100013.95;124965;1093;64310;-75
2021/07/14 09:43:42;;;;;;;5.73;3.60;;;;;;;22.58;81.77;100028.02;124710;1093;64287;-76
2021/07/14 09:46:11;;;;;;;23.70;15.45;;;;;;;22.46;82.62;100022.07;125096;1093;64310;-73
2021/07/14 09:48:40;;;;;;;9.13;5.40;;;;;;;22.36;82.57;100015.59;124676;1093;64214;-73
2021/07/14 09:51:19;;;;;;;5.67;3.07;;;;;;;22.29;83.16;100015.06;124910;1092;64648;-78
2021/07/14 09:53:47;;;;;;;6.13;3.50;;;;;;;22.22;83.58;100013.66;124731;1093;64413;-74
2021/07/14 09:56:14;;;;;;;4.63;3.23;;;;;;;22.18;83.77;100007.98;124705;1093;64224;-74
2021/07/14 09:58:43;;;;;;;4.93;3.57;;;;;;;22.13;84.13;100013.39;124634;1091;64387;-75
2021/07/14 10:01:16;;;;;;;5.50;3.97;;;;;;;22.09;84.40;99998.80;124831;1093;64466;-76
2021/07/14 10:03:52;;;;;;;5.50;2.95;;;;;;;22.06;84.55;100002.84;124787;1093;64304;-75
2021/07/14 10:06:26;;;;;;;6.37;3.50;;;;;;;22.08;84.78;100007.96;124731;1093;64307;-77
2021/07/14 10:08:53;;;;;;;7.77;4.47;;;;;;;22.15;84.80;100011.23;124736;1094;64428;-75
2021/07/14 10:11:22;;;;;;;7.40;3.70;;;;;;;22.31;84.56;100002.06;124774;1093;64299;-75
2021/07/14 10:14:00;;;;;;;5.97;3.87;;;;;;;22.58;83.98;99993.69;124786;1092;65020;-75
2021/07/14 10:16:31;;;;;;;4.95;3.50;;;;;;;22.84;83.10;99998.25;124730;1091;64317;-75
2021/07/14 10:19:10;;;;;;;8.00;3.97;;;;;;;23.12;82.63;99997.68;124739;1093;64373;-75
2021/07/14 10:21:42;;;;;;;5.17;3.80;;;;;;;23.38;80.59;100005.70;124647;1093;64264;-77
2021/07/14 10:24:12;;;;;;;6.77;3.53;;;;;;;23.60;80.57;99994.50;124729;1092;64302;-77
2021/07/14 10:26:43;;;;;;;7.10;4.20;;;;;;;23.74;79.43;99992.80;124758;1093;64310;-75
2021/07/14 10:29:10;;;;;;;5.50;3.60;;;;;;;23.83;78.38;99998.47;124719;1093;64291;-76
2021/07/14 10:31:38;;;;;;;7.43;4.17;;;;;;;23.88;77.84;100011.16;124607;1093;64880;-75
2021/07/14 10:34:07;;;;;;;6.93;5.00;;;;;;;23.89;78.08;100013.59;124843;1093;64689;-76
2021/07/14 10:36:37;;;;;;;6.80;3.60;;;;;;;23.89;77.65;100007.38;124756;1093;64310;-75
2021/07/14 10:39:08;;;;;;;5.90;4.07;;;;;;;23.90;78.07;100004.37;124842;1093;64211;-74
2021/07/14 10:41:35;;;;;;;5.33;3.93;;;;;;;23.90;77.47;100004.37;124800;1093;64349;-74
2021/07/14 10:44:06;;;;;;;9.37;5.90;;;;;;;23.95;76.61;100004.35;124577;1093;64839;-75
2021/07/14 10:46:37;;;;;;;6.87;4.83;;;;;;;23.99;77.19;100013.54;124863;1093;64348;-75
2021/07/14 10:49:06;;;;;;;5.50;3.73;;;;;;;23.98;76.58;100016.52;124785;1093;64288;-77
2021/07/14 10:51:36;;;;;;;8.77;5.90;;;;;;;23.91;75.65;100014.13;124790;1093;64319;-78
2021/07/14 10:54:06;;;;;;;6.37;3.03;;;;;;;23.86;75.08;100011.44;124774;1093;64288;-76
2021/07/14 10:56:43;;;;;;;4.70;3.03;;;;;;;23.84;75.79;100016.32;124634;1093;64342;-76
2021/07/14 10:59:12;;;;;;;5.70;2.77;;;;;;;23.84;75.79;100013.61;124626;1093;64453;-76
2021/07/14 11:01:45;;;;;;;9.10;3.93;;;;;;;23.86;75.57;100014.14;124788;1093;64321;-76
2021/07/14 11:04:33;;;;;;;4.60;3.47;;;;;;;23.91;75.50;100013.33;124709;1093;64282;-75
2021/07/14 11:07:06;;;;;;;7.23;3.87;;;;;;;23.96;75.55;100024.92;124868;1093;64317;-77
2021/07/14 11:09:40;;;;;;;6.40;3.70;;;;;;;24.06;74.66;100032.19;124849;1093;64314;-78
2021/07/14 11:12:27;;;;;;;6.23;3.57;;;;;;;24.27;74.76;100030.15;124665;1093;64403;-76
2021/07/14 11:15:00;;;;;;;6.25;3.90;;;;;;;24.61;73.66;100034.79;124652;1093;64680;-77
2021/07/14 11:17:32;;;;;;;6.20;4.23;;;;;;;24.92;72.27;100031.78;124695;1093;64221;-75
2021/07/14 11:20:12;;;;;;;9.03;5.00;;;;;;;25.33;72.63;100029.47;124614;1092;64329;-75
2021/07/14 11:22:49;;;;;;;11.23;6.83;;;;;;;25.82;70.99;100030.17;124644;1093;64368;-74
2021/07/14 11:25:24;;;;;;;10.20;6.80;;;;;;;26.16;68.98;100023.73;124731;1093;64288;-74